sensor_id;sensor_type;location;lat;lon;timestamp;pressure;altitude;pressure_sealevel;temperature;humidity
65329;BME280;51941;52.210;5.158;2023-03-03T00:00:36;102501.94;;;1.57;100.00
65329;BME280;51941;52.210;5.158;2023-03-03T00:03:06;102507.97;;;1.57;100.00
65329;BME280;51941;52.210;5.158;2023-03-03T00:05:35;102513.06;;;1.59;100.00
65329;BME280;51941;52.210;5.158;2023-03-03T00:08:03;102503.59;;;1.58;100.00
65329;BME280;51941;52.210;5.158;2023-03-03T00:10:30;102497.81;;;1.54;100.00
65329;BME280;51941;52.210;5.158;2023-03-03T00:12:56;102509.75;;;1.57;100.00
65329;BME280;51941;52.210;5.158;2023-03-03T00:15:25;102469.56;;;1.39;100.00
65329;BME280;51941;52.210;5.158;2023-03-03T00:17:53;102500.72;;;1.61;100.00
65329;BME280;51941;52.210;5.158;2023-03-03T00:20:31;102514.59;;;1.61;100.00
65329;BME280;51941;52.210;5.158;2023-03-03T00:23:12;102477.28;;;1.40;100.00
65329;BME280;51941;52.210;5.158;2023-03-03T00:25:42;102501.94;;;1.57;100.00
65329;BME280;51941;52.210;5.158;2023-03-03T00:28:19;102453.44;;;1.24;100.00
65329;BME280;51941;52.210;5.158;2023-03-03T00:30:48;102508.81;;;1.58;100.00
65329;BME280;51941;52.210;5.158;2023-03-03T00:33:23;102510.09;;;1.63;100.00
65329;BME280;51941;52.210;5.158;2023-03-03T00:35:53;102493.50;;;1.44;100.00
65329;BME280;51941;52.210;5.158;2023-03-03T00:38:21;102513.91;;;1.59;100.00
65329;BME280;51941;52.210;5.158;2023-03-03T00:40:48;102519.38;;;1.56;100.00
65329;BME280;51941;52.210;5.158;2023-03-03T00:43:20;102512.66;;;1.54;100.00
65329;BME280;51941;52.210;5.158;2023-03-03T00:45:48;102475.72;;;1.28;100.00
65329;BME280;51941;52.210;5.158;2023-03-03T00:48:24;102514.44;;;1.53;100.00
65329;BME280;51941;52.210;5.158;2023-03-03T00:50:52;102528.31;;;1.54;100.00
65329;BME280;51941;52.210;5.158;2023-03-03T00:53:22;102499.38;;;1.36;100.00
65329;BME280;51941;52.210;5.158;2023-03-03T00:55:51;102497.84;;;1.34;100.00
65329;BME280;51941;52.210;5.158;2023-03-03T00:58:18;102490.38;;;1.19;100.00
65329;BME280;51941;52.210;5.158;2023-03-03T01:00:47;102501.22;;;1.24;100.00
65329;BME280;51941;52.210;5.158;2023-03-03T01:03:19;102466.78;;;1.00;100.00
65329;BME280;51941;52.210;5.158;2023-03-03T01:05:46;102534.97;;;1.37;100.00
65329;BME280;51941;52.210;5.158;2023-03-03T01:08:13;102537.16;;;1.42;100.00
65329;BME280;51941;52.210;5.158;2023-03-03T01:10:45;102525.59;;;1.35;100.00
65329;BME280;51941;52.210;5.158;2023-03-03T01:13:15;102514.28;;;1.24;100.00
65329;BME280;51941;52.210;5.158;2023-03-03T01:15:43;102537.22;;;1.31;100.00
65329;BME280;51941;52.210;5.158;2023-03-03T01:18:12;102542.84;;;1.26;100.00
65329;BME280;51941;52.210;5.158;2023-03-03T01:20:40;102538.00;;;1.21;100.00
65329;BME280;51941;52.210;5.158;2023-03-03T01:23:06;102535.78;;;1.17;100.00
65329;BME280;51941;52.210;5.158;2023-03-03T01:25:33;102540.94;;;1.07;100.00
65329;BME280;51941;52.210;5.158;2023-03-03T01:28:02;102433.94;;;0.35;100.00
65329;BME280;51941;52.210;5.158;2023-03-03T01:30:29;102479.41;;;0.63;100.00
65329;BME280;51941;52.210;5.158;2023-03-03T01:32:56;102534.00;;;0.97;100.00
65329;BME280;51941;52.210;5.158;2023-03-03T01:35:23;102530.00;;;0.93;100.00
65329;BME280;51941;52.210;5.158;2023-03-03T01:37:50;102539.72;;;0.91;100.00
65329;BME280;51941;52.210;5.158;2023-03-03T01:40:19;102536.16;;;0.92;100.00
65329;BME280;51941;52.210;5.158;2023-03-03T01:42:46;102536.72;;;0.95;100.00
65329;BME280;51941;52.210;5.158;2023-03-03T01:45:17;102533.44;;;0.93;100.00
65329;BME280;51941;52.210;5.158;2023-03-03T01:47:49;102536.22;;;1.01;100.00
65329;BME280;51941;52.210;5.158;2023-03-03T01:50:33;102521.78;;;0.97;100.00
65329;BME280;51941;52.210;5.158;2023-03-03T01:53:04;102531.41;;;1.17;100.00
65329;BME280;51941;52.210;5.158;2023-03-03T01:55:34;102541.31;;;1.23;100.00
65329;BME280;51941;52.210;5.158;2023-03-03T01:58:05;102512.94;;;1.09;100.00
65329;BME280;51941;52.210;5.158;2023-03-03T02:00:37;102542.25;;;1.22;100.00
65329;BME280;51941;52.210;5.158;2023-03-03T02:03:04;102541.38;;;1.33;100.00
65329;BME280;51941;52.210;5.158;2023-03-03T02:05:32;102534.13;;;1.37;100.00
65329;BME280;51941;52.210;5.158;2023-03-03T02:08:00;102544.69;;;1.35;100.00
65329;BME280;51941;52.210;5.158;2023-03-03T02:10:27;102539.91;;;1.40;100.00
65329;BME280;51941;52.210;5.158;2023-03-03T02:12:56;102439.88;;;0.79;100.00
65329;BME280;51941;52.210;5.158;2023-03-03T02:15:25;102531.06;;;1.32;100.00
65329;BME280;51941;52.210;5.158;2023-03-03T02:17:55;102541.31;;;1.44;100.00
65329;BME280;51941;52.210;5.158;2023-03-03T02:20:30;102534.31;;;1.45;100.00
65329;BME280;51941;52.210;5.158;2023-03-03T02:23:05;102538.13;;;1.41;100.00
65329;BME280;51941;52.210;5.158;2023-03-03T02:25:36;102534.72;;;1.50;100.00
65329;BME280;51941;52.210;5.158;2023-03-03T02:28:08;102526.47;;;1.45;100.00
65329;BME280;51941;52.210;5.158;2023-03-03T02:30:37;102496.00;;;1.24;100.00
65329;BME280;51941;52.210;5.158;2023-03-03T02:33:05;102496.72;;;1.26;100.00
65329;BME280;51941;52.210;5.158;2023-03-03T02:35:34;102532.81;;;1.52;100.00
65329;BME280;51941;52.210;5.158;2023-03-03T02:38:16;102537.94;;;1.53;100.00
65329;BME280;51941;52.210;5.158;2023-03-03T02:40:52;102541.66;;;1.60;100.00
65329;BME280;51941;52.210;5.158;2023-03-03T02:43:30;102526.25;;;1.57;100.00
65329;BME280;51941;52.210;5.158;2023-03-03T02:45:59;102537.28;;;1.61;100.00
65329;BME280;51941;52.210;5.158;2023-03-03T02:48:25;102532.31;;;1.58;100.00
65329;BME280;51941;52.210;5.158;2023-03-03T02:50:52;102537.66;;;1.56;100.00
65329;BME280;51941;52.210;5.158;2023-03-03T02:53:19;102528.56;;;1.51;100.00
65329;BME280;51941;52.210;5.158;2023-03-03T02:55:46;102531.94;;;1.62;100.00
65329;BME280;51941;52.210;5.158;2023-03-03T02:58:13;102542.91;;;1.66;100.00
65329;BME280;51941;52.210;5.158;2023-03-03T03:00:42;102533.72;;;1.62;100.00
65329;BME280;51941;52.210;5.158;2023-03-03T03:03:15;102545.47;;;1.56;100.00
65329;BME280;51941;52.210;5.158;2023-03-03T03:05:42;102536.69;;;1.57;100.00
65329;BME280;51941;52.210;5.158;2023-03-03T03:08:09;102535.84;;;1.57;100.00
65329;BME280;51941;52.210;5.158;2023-03-03T03:10:36;102538.94;;;1.62;100.00
65329;BME280;51941;52.210;5.158;2023-03-03T03:13:03;102518.50;;;1.46;100.00
65329;BME280;51941;52.210;5.158;2023-03-03T03:15:30;102533.38;;;1.55;100.00
65329;BME280;51941;52.210;5.158;2023-03-03T03:17:58;102543.44;;;1.60;100.00
65329;BME280;51941;52.210;5.158;2023-03-03T03:20:26;102492.75;;;1.32;100.00
65329;BME280;51941;52.210;5.158;2023-03-03T03:22:52;102533.13;;;1.58;100.00
65329;BME280;51941;52.210;5.158;2023-03-03T03:25:19;102528.50;;;1.62;100.00
65329;BME280;51941;52.210;5.158;2023-03-03T03:27:46;102533.59;;;1.63;100.00
65329;BME280;51941;52.210;5.158;2023-03-03T03:30:13;102535.78;;;1.68;100.00
65329;BME280;51941;52.210;5.158;2023-03-03T03:32:40;102514.97;;;1.57;100.00
65329;BME280;51941;52.210;5.158;2023-03-03T03:35:09;102536.88;;;1.65;100.00
65329;BME280;51941;52.210;5.158;2023-03-03T03:37:37;102534.72;;;1.71;100.00
65329;BME280;51941;52.210;5.158;2023-03-03T03:40:04;102530.44;;;1.70;100.00
65329;BME280;51941;52.210;5.158;2023-03-03T03:42:32;102473.25;;;1.26;100.00
65329;BME280;51941;52.210;5.158;2023-03-03T03:44:58;102522.69;;;1.58;100.00
65329;BME280;51941;52.210;5.158;2023-03-03T03:47:25;102538.66;;;1.65;100.00
65329;BME280;51941;52.210;5.158;2023-03-03T03:49:53;102544.81;;;1.64;100.00
65329;BME280;51941;52.210;5.158;2023-03-03T03:52:22;102520.56;;;1.43;100.00
65329;BME280;51941;52.210;5.158;2023-03-03T03:54:49;102548.66;;;1.60;100.00
65329;BME280;51941;52.210;5.158;2023-03-03T03:57:16;102547.59;;;1.62;100.00
65329;BME280;51941;52.210;5.158;2023-03-03T03:59:44;102556.66;;;1.68;100.00
65329;BME280;51941;52.210;5.158;2023-03-03T04:02:10;102548.13;;;1.66;100.00
65329;BME280;51941;52.210;5.158;2023-03-03T04:04:37;102558.56;;;1.66;100.00
65329;BME280;51941;52.210;5.158;2023-03-03T04:07:05;102559.28;;;1.68;100.00
65329;BME280;51941;52.210;5.158;2023-03-03T04:09:34;102534.66;;;1.61;100.00
65329;BME280;51941;52.210;5.158;2023-03-03T04:12:00;102563.28;;;1.72;100.00
65329;BME280;51941;52.210;5.158;2023-03-03T04:14:29;102556.53;;;1.70;100.00
65329;BME280;51941;52.210;5.158;2023-03-03T04:16:56;102544.56;;;1.67;100.00
65329;BME280;51941;52.210;5.158;2023-03-03T04:19:23;102553.81;;;1.71;100.00
65329;BME280;51941;52.210;5.158;2023-03-03T04:21:51;102554.47;;;1.73;100.00
65329;BME280;51941;52.210;5.158;2023-03-03T04:24:17;102559.84;;;1.72;100.00
65329;BME280;51941;52.210;5.158;2023-03-03T04:26:47;102554.47;;;1.73;100.00
65329;BME280;51941;52.210;5.158;2023-03-03T04:29:15;102558.75;;;1.74;100.00
65329;BME280;51941;52.210;5.158;2023-03-03T04:31:42;102555.88;;;1.77;100.00
65329;BME280;51941;52.210;5.158;2023-03-03T04:34:10;102559.31;;;1.78;100.00
65329;BME280;51941;52.210;5.158;2023-03-03T04:36:38;102564.28;;;1.81;100.00
65329;BME280;51941;52.210;5.158;2023-03-03T04:39:05;102556.72;;;1.78;100.00
65329;BME280;51941;52.210;5.158;2023-03-03T04:41:32;102565.13;;;1.81;100.00
65329;BME280;51941;52.210;5.158;2023-03-03T04:44:00;102558.91;;;1.82;100.00
65329;BME280;51941;52.210;5.158;2023-03-03T04:46:26;102564.59;;;1.87;100.00
65329;BME280;51941;52.210;5.158;2023-03-03T04:48:57;102537.88;;;1.74;100.00
65329;BME280;51941;52.210;5.158;2023-03-03T04:51:25;102551.38;;;1.79;100.00
65329;BME280;51941;52.210;5.158;2023-03-03T04:53:52;102566.78;;;1.92;100.00
65329;BME280;51941;52.210;5.158;2023-03-03T04:56:19;102578.19;;;1.91;100.00
65329;BME280;51941;52.210;5.158;2023-03-03T04:58:47;102568.84;;;1.88;100.00
65329;BME280;51941;52.210;5.158;2023-03-03T05:01:17;102576.00;;;1.86;100.00
65329;BME280;51941;52.210;5.158;2023-03-03T05:03:44;102531.78;;;1.64;100.00
65329;BME280;51941;52.210;5.158;2023-03-03T05:06:11;102531.66;;;1.65;100.00
65329;BME280;51941;52.210;5.158;2023-03-03T05:08:37;102508.09;;;1.56;100.00
65329;BME280;51941;52.210;5.158;2023-03-03T05:11:04;102569.72;;;1.98;100.00
65329;BME280;51941;52.210;5.158;2023-03-03T05:13:31;102569.19;;;2.05;100.00
65329;BME280;51941;52.210;5.158;2023-03-03T05:15:58;102567.13;;;2.08;100.00
65329;BME280;51941;52.210;5.158;2023-03-03T05:18:26;102561.91;;;2.08;100.00
65329;BME280;51941;52.210;5.158;2023-03-03T05:20:53;102562.88;;;2.17;100.00
65329;BME280;51941;52.210;5.158;2023-03-03T05:23:21;102570.88;;;2.15;100.00
65329;BME280;51941;52.210;5.158;2023-03-03T05:25:47;102567.56;;;2.13;100.00
65329;BME280;51941;52.210;5.158;2023-03-03T05:28:15;102550.78;;;2.06;100.00
65329;BME280;51941;52.210;5.158;2023-03-03T05:30:42;102562.47;;;2.12;100.00
65329;BME280;51941;52.210;5.158;2023-03-03T05:33:12;102561.09;;;2.08;100.00
65329;BME280;51941;52.210;5.158;2023-03-03T05:35:40;102561.63;;;2.11;100.00
65329;BME280;51941;52.210;5.158;2023-03-03T05:38:07;102531.34;;;1.89;100.00
65329;BME280;51941;52.210;5.158;2023-03-03T05:40:34;102562.34;;;2.13;100.00
65329;BME280;51941;52.210;5.158;2023-03-03T05:43:01;102566.63;;;2.14;100.00
65329;BME280;51941;52.210;5.158;2023-03-03T05:45:27;102568.28;;;2.15;100.00
65329;BME280;51941;52.210;5.158;2023-03-03T05:47:54;102565.22;;;2.10;100.00
65329;BME280;51941;52.210;5.158;2023-03-03T05:50:22;102560.56;;;2.14;100.00
65329;BME280;51941;52.210;5.158;2023-03-03T05:52:51;102561.63;;;2.11;100.00
65329;BME280;51941;52.210;5.158;2023-03-03T05:55:18;102565.50;;;2.17;100.00
65329;BME280;51941;52.210;5.158;2023-03-03T05:57:45;102567.97;;;2.18;100.00
65329;BME280;51941;52.210;5.158;2023-03-03T06:00:13;102579.13;;;2.20;100.00
65329;BME280;51941;52.210;5.158;2023-03-03T06:02:40;102539.88;;;2.01;100.00
65329;BME280;51941;52.210;5.158;2023-03-03T06:05:08;102571.03;;;2.23;100.00
65329;BME280;51941;52.210;5.158;2023-03-03T06:07:35;102570.34;;;2.21;100.00
65329;BME280;51941;52.210;5.158;2023-03-03T06:10:04;102578.19;;;2.21;100.00
65329;BME280;51941;52.210;5.158;2023-03-03T06:12:33;102580.91;;;2.20;100.00
65329;BME280;51941;52.210;5.158;2023-03-03T06:15:00;102570.22;;;2.23;100.00
65329;BME280;51941;52.210;5.158;2023-03-03T06:17:27;102575.56;;;2.21;100.00
65329;BME280;51941;52.210;5.158;2023-03-03T06:19:53;102575.00;;;2.18;100.00
65329;BME280;51941;52.210;5.158;2023-03-03T06:22:20;102556.94;;;1.95;100.00
65329;BME280;51941;52.210;5.158;2023-03-03T06:24:47;102558.59;;;1.96;100.00
65329;BME280;51941;52.210;5.158;2023-03-03T06:27:15;102535.81;;;1.78;100.00
65329;BME280;51941;52.210;5.158;2023-03-03T06:29:42;102577.72;;;2.07;100.00
65329;BME280;51941;52.210;5.158;2023-03-03T06:32:09;102593.81;;;2.12;100.00
65329;BME280;51941;52.210;5.158;2023-03-03T06:34:35;102592.16;;;2.11;100.00
65329;BME280;51941;52.210;5.158;2023-03-03T06:37:02;102574.28;;;2.06;100.00
65329;BME280;51941;52.210;5.158;2023-03-03T06:39:29;102595.75;;;2.19;100.00
65329;BME280;51941;52.210;5.158;2023-03-03T06:41:55;102590.69;;;2.27;100.00
65329;BME280;51941;52.210;5.158;2023-03-03T06:44:24;102601.47;;;2.34;100.00
65329;BME280;51941;52.210;5.158;2023-03-03T06:46:51;102594.03;;;2.39;100.00
65329;BME280;51941;52.210;5.158;2023-03-03T06:49:18;102599.69;;;2.44;100.00
65329;BME280;51941;52.210;5.158;2023-03-03T06:51:44;102601.06;;;2.48;100.00
65329;BME280;51941;52.210;5.158;2023-03-03T06:54:12;102608.91;;;2.48;100.00
65329;BME280;51941;52.210;5.158;2023-03-03T06:56:41;102606.06;;;2.51;100.00
65329;BME280;51941;52.210;5.158;2023-03-03T06:59:12;102623.22;;;2.54;100.00
65329;BME280;51941;52.210;5.158;2023-03-03T07:01:41;102599.16;;;2.50;100.00
65329;BME280;51941;52.210;5.158;2023-03-03T07:04:15;102616.25;;;2.64;100.00
65329;BME280;51941;52.210;5.158;2023-03-03T07:06:42;102609.63;;;2.69;100.00
65329;BME280;51941;52.210;5.158;2023-03-03T07:09:16;102619.69;;;2.74;100.00
65329;BME280;51941;52.210;5.158;2023-03-03T07:11:44;102622.47;;;2.82;100.00
65329;BME280;51941;52.210;5.158;2023-03-03T07:14:15;102615.56;;;2.81;100.00
65329;BME280;51941;52.210;5.158;2023-03-03T07:16:45;102630.88;;;2.86;100.00
65329;BME280;51941;52.210;5.158;2023-03-03T07:19:17;102620.09;;;2.79;100.00
65329;BME280;51941;52.210;5.158;2023-03-03T07:21:45;102589.81;;;2.57;100.00
65329;BME280;51941;52.210;5.158;2023-03-03T07:24:24;102636.34;;;2.73;100.00
65329;BME280;51941;52.210;5.158;2023-03-03T07:26:55;102619.44;;;2.77;100.00
65329;BME280;51941;52.210;5.158;2023-03-03T07:29:25;102630.59;;;2.89;100.00
65329;BME280;51941;52.210;5.158;2023-03-03T07:31:56;102599.34;;;2.77;100.00
65329;BME280;51941;52.210;5.158;2023-03-03T07:34:26;102630.72;;;3.06;100.00
65329;BME280;51941;52.210;5.158;2023-03-03T07:36:57;102635.00;;;3.17;100.00
65329;BME280;51941;52.210;5.158;2023-03-03T07:39:30;102639.97;;;3.20;100.00
65329;BME280;51941;52.210;5.158;2023-03-03T07:42:10;102642.72;;;3.19;100.00
65329;BME280;51941;52.210;5.158;2023-03-03T07:44:38;102612.16;;;3.00;100.00
65329;BME280;51941;52.210;5.158;2023-03-03T07:47:17;102653.19;;;3.28;100.00
65329;BME280;51941;52.210;5.158;2023-03-03T07:49:44;102654.84;;;3.20;100.00
65329;BME280;51941;52.210;5.158;2023-03-03T07:52:23;102662.00;;;3.27;100.00
65329;BME280;51941;52.210;5.158;2023-03-03T07:54:51;102659.25;;;3.29;100.00
65329;BME280;51941;52.210;5.158;2023-03-03T07:57:21;102661.56;;;3.32;100.00
65329;BME280;51941;52.210;5.158;2023-03-03T07:59:50;102665.44;;;3.28;100.00
65329;BME280;51941;52.210;5.158;2023-03-03T08:02:37;102672.59;;;3.26;100.00
65329;BME280;51941;52.210;5.158;2023-03-03T08:05:29;102669.72;;;3.29;100.00
65329;BME280;51941;52.210;5.158;2023-03-03T08:08:11;102676.31;;;3.33;100.00
65329;BME280;51941;52.210;5.158;2023-03-03T08:10:47;102644.13;;;3.13;100.00
65329;BME280;51941;52.210;5.158;2023-03-03T08:13:18;102676.88;;;3.36;100.00
65329;BME280;51941;52.210;5.158;2023-03-03T08:15:48;102670.38;;;3.40;100.00
65329;BME280;51941;52.210;5.158;2023-03-03T08:18:22;102685.84;;;3.43;100.00
65329;BME280;51941;52.210;5.158;2023-03-03T08:20:52;102690.09;;;3.54;100.00
65329;BME280;51941;52.210;5.158;2023-03-03T08:23:20;102685.81;;;3.53;100.00
65329;BME280;51941;52.210;5.158;2023-03-03T08:25:48;102680.84;;;3.60;100.00
65329;BME280;51941;52.210;5.158;2023-03-03T08:28:16;102662.97;;;3.45;100.00
65329;BME280;51941;52.210;5.158;2023-03-03T08:30:43;102694.06;;;3.77;100.00
65329;BME280;51941;52.210;5.158;2023-03-03T08:33:11;102656.28;;;3.80;100.00
65329;BME280;51941;52.210;5.158;2023-03-03T08:35:39;102688.06;;;4.04;100.00
65329;BME280;51941;52.210;5.158;2023-03-03T08:38:07;102674.84;;;4.06;100.00
65329;BME280;51941;52.210;5.158;2023-03-03T08:40:34;102696.44;;;4.27;100.00
65329;BME280;51941;52.210;5.158;2023-03-03T08:43:02;102659.91;;;4.16;100.00
65329;BME280;51941;52.210;5.158;2023-03-03T08:45:29;102652.56;;;4.19;100.00
65329;BME280;51941;52.210;5.158;2023-03-03T08:47:56;102689.06;;;4.67;100.00
65329;BME280;51941;52.210;5.158;2023-03-03T08:50:24;102691.63;;;4.77;100.00
65329;BME280;51941;52.210;5.158;2023-03-03T08:52:52;102693.91;;;4.90;100.00
65329;BME280;51941;52.210;5.158;2023-03-03T08:55:19;102706.69;;;5.02;100.00
65329;BME280;51941;52.210;5.158;2023-03-03T08:57:46;102692.31;;;5.07;100.00
65329;BME280;51941;52.210;5.158;2023-03-03T09:00:15;102694.69;;;5.00;100.00
65329;BME280;51941;52.210;5.158;2023-03-03T09:02:42;102703.09;;;5.03;100.00
65329;BME280;51941;52.210;5.158;2023-03-03T09:05:09;102697.84;;;5.03;100.00
65329;BME280;51941;52.210;5.158;2023-03-03T09:07:36;102706.91;;;5.09;100.00
65329;BME280;51941;52.210;5.158;2023-03-03T09:10:06;102701.75;;;5.17;100.00
65329;BME280;51941;52.210;5.158;2023-03-03T09:12:34;102699.94;;;5.18;100.00
65329;BME280;51941;52.210;5.158;2023-03-03T09:15:11;102692.84;;;5.28;100.00
65329;BME280;51941;52.210;5.158;2023-03-03T09:17:40;102651.72;;;5.01;100.00
65329;BME280;51941;52.210;5.158;2023-03-03T09:20:20;102697.41;;;5.26;100.00
65329;BME280;51941;52.210;5.158;2023-03-03T09:22:49;102700.78;;;5.36;100.00
65329;BME280;51941;52.210;5.158;2023-03-03T09:25:22;102697.94;;;5.29;100.00
65329;BME280;51941;52.210;5.158;2023-03-03T09:27:53;102689.44;;;5.35;100.00
65329;BME280;51941;52.210;5.158;2023-03-03T09:30:35;102693.50;;;5.48;100.00
65329;BME280;51941;52.210;5.158;2023-03-03T09:33:20;102700.16;;;5.42;99.69
65329;BME280;51941;52.210;5.158;2023-03-03T09:35:50;102693.22;;;5.51;100.00
65329;BME280;51941;52.210;5.158;2023-03-03T09:38:24;102659.66;;;5.45;98.87
65329;BME280;51941;52.210;5.158;2023-03-03T09:41:14;102660.66;;;5.69;97.98
65329;BME280;51941;52.210;5.158;2023-03-03T09:43:50;102694.69;;;5.97;97.59
65329;BME280;51941;52.210;5.158;2023-03-03T09:46:22;102702.94;;;6.02;97.56
65329;BME280;51941;52.210;5.158;2023-03-03T09:49:03;102689.66;;;6.03;97.68
65329;BME280;51941;52.210;5.158;2023-03-03T09:52:13;102705.91;;;6.07;95.47
65329;BME280;51941;52.210;5.158;2023-03-03T09:54:53;102700.63;;;6.33;95.81
65329;BME280;51941;52.210;5.158;2023-03-03T09:57:30;102706.31;;;6.46;94.52
65329;BME280;51941;52.210;5.158;2023-03-03T10:00:13;102658.78;;;6.13;93.36
65329;BME280;51941;52.210;5.158;2023-03-03T10:02:52;102705.31;;;6.47;94.03
65329;BME280;51941;52.210;5.158;2023-03-03T10:05:36;102699.81;;;6.32;92.46
65329;BME280;51941;52.210;5.158;2023-03-03T10:08:29;102712.50;;;6.37;92.61
65329;BME280;51941;52.210;5.158;2023-03-03T10:11:04;102712.38;;;6.46;93.41
65329;BME280;51941;52.210;5.158;2023-03-03T10:13:47;102713.84;;;6.49;92.08
65329;BME280;51941;52.210;5.158;2023-03-03T10:16:36;102709.47;;;6.66;91.85
65329;BME280;51941;52.210;5.158;2023-03-03T10:19:17;102707.91;;;6.81;90.66
65329;BME280;51941;52.210;5.158;2023-03-03T10:21:49;102704.31;;;6.82;89.92
65329;BME280;51941;52.210;5.158;2023-03-03T10:24:26;102703.44;;;6.73;89.88
65329;BME280;51941;52.210;5.158;2023-03-03T10:27:07;102705.25;;;6.73;89.31
65329;BME280;51941;52.210;5.158;2023-03-03T10:29:43;102701.81;;;6.72;89.81
65329;BME280;51941;52.210;5.158;2023-03-03T10:32:30;102686.13;;;6.54;88.37
65329;BME280;51941;52.210;5.158;2023-03-03T10:35:11;102708.97;;;6.54;89.75
65329;BME280;51941;52.210;5.158;2023-03-03T10:37:47;102712.69;;;6.43;90.48
65329;BME280;51941;52.210;5.158;2023-03-03T10:40:23;102705.84;;;6.25;90.06
65329;BME280;51941;52.210;5.158;2023-03-03T10:43:09;102704.94;;;6.08;90.37
65329;BME280;51941;52.210;5.158;2023-03-03T10:46:05;102699.97;;;6.05;90.65
65329;BME280;51941;52.210;5.158;2023-03-03T10:48:49;102706.13;;;6.13;91.02
65329;BME280;51941;52.210;5.158;2023-03-03T10:51:25;102706.13;;;6.13;91.42
65329;BME280;51941;52.210;5.158;2023-03-03T10:54:04;102694.13;;;6.11;91.10
65329;BME280;51941;52.210;5.158;2023-03-03T10:56:42;102685.31;;;6.20;90.56
65329;BME280;51941;52.210;5.158;2023-03-03T10:59:25;102696.75;;;6.45;90.27
65329;BME280;51941;52.210;5.158;2023-03-03T11:02:00;102700.59;;;6.59;90.42
65329;BME280;51941;52.210;5.158;2023-03-03T11:04:58;102610.28;;;6.08;89.28
65329;BME280;51941;52.210;5.158;2023-03-03T11:07:34;102698.97;;;6.66;88.68
65329;BME280;51941;52.210;5.158;2023-03-03T11:10:20;102702.44;;;6.74;89.29
65329;BME280;51941;52.210;5.158;2023-03-03T11:12:56;102655.81;;;6.50;89.59
65329;BME280;51941;52.210;5.158;2023-03-03T11:15:37;102700.72;;;6.91;88.74
65329;BME280;51941;52.210;5.158;2023-03-03T11:18:16;102699.94;;;7.15;86.39
65329;BME280;51941;52.210;5.158;2023-03-03T11:20:53;102696.69;;;7.45;85.56
65329;BME280;51941;52.210;5.158;2023-03-03T11:23:40;102651.88;;;7.45;85.60
65329;BME280;51941;52.210;5.158;2023-03-03T11:26:14;102689.22;;;7.97;83.98
65329;BME280;51941;52.210;5.158;2023-03-03T11:29:01;102659.19;;;8.06;83.54
65329;BME280;51941;52.210;5.158;2023-03-03T11:31:37;102683.75;;;8.23;82.07
65329;BME280;51941;52.210;5.158;2023-03-03T11:34:14;102676.47;;;8.17;79.39
65329;BME280;51941;52.210;5.158;2023-03-03T11:36:48;102678.63;;;8.22;79.92
65329;BME280;51941;52.210;5.158;2023-03-03T11:39:21;102676.84;;;8.14;79.54
65329;BME280;51941;52.210;5.158;2023-03-03T11:41:59;102679.31;;;7.99;78.05
65329;BME280;51941;52.210;5.158;2023-03-03T11:44:30;102689.22;;;7.89;77.10
65329;BME280;51941;52.210;5.158;2023-03-03T11:47:01;102689.59;;;7.86;76.70
65329;BME280;51941;52.210;5.158;2023-03-03T11:49:36;102693.22;;;7.77;75.43
65329;BME280;51941;52.210;5.158;2023-03-03T11:52:20;102692.06;;;7.72;74.82
65329;BME280;51941;52.210;5.158;2023-03-03T11:54:51;102688.78;;;7.53;74.28
65329;BME280;51941;52.210;5.158;2023-03-03T11:57:23;102682.69;;;7.45;74.00
65329;BME280;51941;52.210;5.158;2023-03-03T12:00:10;102674.97;;;7.35;74.13
65329;BME280;51941;52.210;5.158;2023-03-03T12:03:16;102687.47;;;7.41;73.68
65329;BME280;51941;52.210;5.158;2023-03-03T12:05:54;102675.94;;;7.50;72.58
65329;BME280;51941;52.210;5.158;2023-03-03T12:08:43;102669.81;;;7.74;72.63
65329;BME280;51941;52.210;5.158;2023-03-03T12:11:20;102667.78;;;8.09;72.67
65329;BME280;51941;52.210;5.158;2023-03-03T12:13:56;102661.75;;;8.39;72.07
65329;BME280;51941;52.210;5.158;2023-03-03T12:16:37;102672.06;;;8.57;71.47
65329;BME280;51941;52.210;5.158;2023-03-03T12:19:16;102658.84;;;8.57;70.00
65329;BME280;51941;52.210;5.158;2023-03-03T12:22:06;102658.06;;;8.48;68.39
65329;BME280;51941;52.210;5.158;2023-03-03T12:24:45;102656.00;;;8.27;67.57
65329;BME280;51941;52.210;5.158;2023-03-03T12:27:22;102644.97;;;8.24;68.85
65329;BME280;51941;52.210;5.158;2023-03-03T12:30:00;102662.63;;;8.15;69.03
65329;BME280;51941;52.210;5.158;2023-03-03T12:32:42;102658.38;;;8.14;68.37
65329;BME280;51941;52.210;5.158;2023-03-03T12:35:19;102652.91;;;8.16;67.94
65329;BME280;51941;52.210;5.158;2023-03-03T12:37:53;102626.41;;;8.09;65.58
65329;BME280;51941;52.210;5.158;2023-03-03T12:40:24;102630.53;;;8.03;64.40
65329;BME280;51941;52.210;5.158;2023-03-03T12:43:06;102646.19;;;8.13;63.67
65329;BME280;51941;52.210;5.158;2023-03-03T12:45:47;102643.97;;;8.25;63.84
65329;BME280;51941;52.210;5.158;2023-03-03T12:48:20;102644.22;;;8.46;64.32
65329;BME280;51941;52.210;5.158;2023-03-03T12:50:56;102620.97;;;8.50;62.59
65329;BME280;51941;52.210;5.158;2023-03-03T12:53:42;102631.16;;;8.84;62.05
65329;BME280;51941;52.210;5.158;2023-03-03T12:56:14;102638.19;;;8.91;61.15
65329;BME280;51941;52.210;5.158;2023-03-03T12:58:50;102637.06;;;8.86;60.42
65329;BME280;51941;52.210;5.158;2023-03-03T13:01:32;102639.94;;;8.76;60.41
65329;BME280;51941;52.210;5.158;2023-03-03T13:04:06;102633.53;;;8.70;60.47
65329;BME280;51941;52.210;5.158;2023-03-03T13:06:40;102628.72;;;8.43;59.71
65329;BME280;51941;52.210;5.158;2023-03-03T13:09:19;102635.34;;;8.39;60.58
65329;BME280;51941;52.210;5.158;2023-03-03T13:12:02;102640.66;;;8.31;60.01
65329;BME280;51941;52.210;5.158;2023-03-03T13:14:37;102633.25;;;8.26;59.61
65329;BME280;51941;52.210;5.158;2023-03-03T13:17:16;102627.91;;;8.42;59.66